Time;durP1;ratioP1;P1;durP2;ratioP2;P2;SDS_P1;SDS_P2;PMS_P1;PMS_P2;Temp;Humidity;BMP_temperature;BMP_pressure;BME280_temperature;BME280_humidity;BME280_pressure;Samples;Min_cycle;Max_cycle;Signal;HPM_P1;HPM_P2
2022/01/23 00:01:36;;;;;;;40.08;27.92;;;-1.40;99.90;;;;;;4998646;28;20449;-83
2022/01/23 00:04:08;;;;;;;90.45;52.10;;;-1.40;99.90;;;;;;4981952;28;20493;-84
2022/01/23 00:06:43;;;;;;;47.90;30.52;;;-1.40;99.90;;;;;;4981653;28;20192;-83
2022/01/23 00:09:12;;;;;;;30.80;22.55;;;-1.40;99.90;;;;;;4982109;28;20030;-84
2022/01/23 00:17:24;;;;;;;47.05;28.63;;;-1.40;99.90;;;;;;4998690;28;20164;-83
2022/01/23 00:20:06;;;;;;;;;;;;;;;;;;;;;
2022/01/23 00:31:14;;;;;;;42.33;27.95;;;-1.40;99.90;;;;;;4988280;28;20038;-85
2022/01/23 00:33:45;;;;;;;40.38;27.85;;;-1.40;99.90;;;;;;4999948;28;20496;-84
2022/01/23 00:36:23;;;;;;;;;;;;;;;;;;;;;
2022/01/23 00:39:02;;;;;;;50.67;35.38;;;-1.40;99.90;;;;;;4999017;28;20029;-85
2022/01/23 00:41:50;;;;;;;45.08;30.92;;;-1.40;99.90;;;;;;4981211;28;20454;-85
2022/01/23 00:44:16;;;;;;;37.90;27.63;;;-1.40;99.90;;;;;;4981417;28;20033;-86
2022/01/23 00:46:49;;;;;;;49.38;32.13;;;-1.40;99.90;;;;;;4981579;28;20804;-85
2022/01/23 00:49:28;;;;;;;53.83;37.47;;;-1.40;99.90;;;;;;4984045;28;20033;-86
2022/01/23 00:52:06;;;;;;;50.05;32.55;;;-1.40;99.90;;;;;;4988630;28;20022;-85
2022/01/23 00:54:32;;;;;;;44.63;30.90;;;-1.40;99.90;;;;;;5013624;28;20117;-85
2022/01/23 00:57:04;;;;;;;46.78;30.88;;;-1.40;99.90;;;;;;4981129;28;20057;-86
2022/01/23 00:59:38;;;;;;;46.78;29.90;;;-1.50;99.90;;;;;;4980439;28;20478;-85
2022/01/23 01:02:05;;;;;;;43.05;29.23;;;-1.50;99.90;;;;;;4980989;28;20120;-85
2022/01/23 01:04:33;;;;;;;43.13;31.70;;;-1.60;99.90;;;;;;4998145;28;20061;-85
2022/01/23 01:07:11;;;;;;;56.53;29.63;;;-1.50;99.90;;;;;;4999061;28;20051;-85
2022/01/23 01:09:48;;;;;;;43.30;31.20;;;-1.50;99.90;;;;;;4981004;28;20029;-86
2022/01/23 01:12:19;;;;;;;44.03;30.38;;;-1.50;99.90;;;;;;5000155;28;20101;-86
2022/01/23 01:15:11;;;;;;;51.78;31.20;;;-1.50;99.90;;;;;;4982164;28;20030;-86
2022/01/23 01:30:13;;;;;;;45.30;33.13;;;-1.60;99.90;;;;;;4998809;28;20423;-86
2022/01/23 01:31:51;;;;;;;51.90;32.30;;;-1.50;99.90;;;;;;4998442;28;20096;-86
2022/01/23 01:34:33;;;;;;;49.53;33.03;;;-1.60;99.90;;;;;;4980806;28;20036;-86
2022/01/23 01:37:12;;;;;;;51.47;34.38;;;-1.60;99.90;;;;;;4977773;28;20107;-86
2022/01/23 01:39:38;;;;;;;54.38;35.88;;;-1.60;99.90;;;;;;4997956;28;20021;-86
2022/01/23 01:42:05;;;;;;;51.30;34.38;;;-1.60;99.90;;;;;;4980489;28;20027;-86
2022/01/23 01:44:33;;;;;;;50.03;34.88;;;-1.70;99.90;;;;;;4981661;28;20027;-86
2022/01/23 01:47:09;;;;;;;53.10;33.63;;;-1.70;99.90;;;;;;4998796;28;20022;-86
2022/01/23 01:49:35;;;;;;;51.67;34.72;;;-1.70;99.90;;;;;;4998614;28;20085;-86
2022/01/23 01:52:05;;;;;;;55.78;35.17;;;-1.70;99.90;;;;;;4981496;28;20024;-85
2022/01/23 01:54:32;;;;;;;50.85;34.35;;;-1.70;99.90;;;;;;4998436;28;20363;-86
2022/01/23 01:57:06;;;;;;;50.63;35.08;;;-1.70;99.90;;;;;;4998401;28;20026;-86
2022/01/23 02:09:59;;;;;;;56.20;34.22;;;-1.80;99.90;;;;;;4997525;28;20037;-86
2022/01/23 02:23:29;;;;;;;46.08;33.00;;;-1.90;99.90;;;;;;4997622;28;20029;-85
2022/01/23 02:51:15;;;;;;;45.28;33.08;;;-1.80;99.90;;;;;;5000918;28;20064;-84
2022/01/23 02:56:35;;;;;;;46.40;29.80;;;-1.80;99.90;;;;;;5000196;28;20085;-86
2022/01/23 02:59:12;;;;;;;46.65;32.10;;;-1.80;99.90;;;;;;4983059;28;20029;-85
2022/01/23 03:01:48;;;;;;;54.50;31.73;;;-1.80;99.90;;;;;;5015753;28;20022;-85
2022/01/23 03:04:21;;;;;;;50.13;31.63;;;-1.80;99.90;;;;;;4982923;28;20133;-85
2022/01/23 03:25:01;;;;;;;50.13;34.13;;;-2.00;99.90;;;;;;5008477;28;20032;-85
2022/01/23 03:32:50;;;;;;;58.17;36.10;;;-2.10;99.90;;;;;;5017906;28;20144;-85
2022/01/23 03:35:19;;;;;;;51.72;33.63;;;-2.10;99.90;;;;;;4994991;28;20057;-85
2022/01/23 03:37:53;;;;;;;50.17;33.83;;;-2.10;99.90;;;;;;4999200;28;20489;-84
2022/01/23 03:40:21;;;;;;;47.63;33.55;;;-2.10;99.90;;;;;;4984444;28;20019;-84
2022/01/23 03:42:55;;;;;;;46.95;32.30;;;-2.10;99.90;;;;;;5008451;28;20022;-86
2022/01/23 03:50:49;;;;;;;45.20;31.35;;;-2.20;99.90;;;;;;5017678;28;20026;-85
2022/01/23 03:53:16;;;;;;;44.47;32.58;;;-2.20;99.90;;;;;;5014561;28;20022;-84
2022/01/23 03:55:42;;;;;;;45.72;32.85;;;-2.20;99.90;;;;;;5013118;28;20030;-84
2022/01/23 03:58:11;;;;;;;44.28;30.50;;;-2.20;99.90;;;;;;4999833;28;20109;-84
2022/01/23 04:00:37;;;;;;;47.40;32.45;;;-2.20;99.90;;;;;;4998653;28;20044;-84
2022/01/23 04:03:03;;;;;;;286.25;120.35;;;-2.20;99.90;;;;;;4997766;28;20022;-84
2022/01/23 04:05:29;;;;;;;61.22;36.97;;;-2.20;99.90;;;;;;5016799;28;20022;-84
2022/01/23 04:07:55;;;;;;;51.20;30.63;;;-2.20;99.90;;;;;;4997765;28;20025;-84
2022/01/23 04:10:23;;;;;;;48.42;30.00;;;-2.30;99.90;;;;;;4999514;28;20025;-84
2022/01/23 04:12:54;;;;;;;48.53;29.83;;;-2.30;99.90;;;;;;4997640;28;20029;-84
2022/01/23 04:32:04;;;;;;;46.28;31.70;;;-2.40;99.90;;;;;;5014405;28;20052;-84
2022/01/23 04:45:28;;;;;;;42.65;32.15;;;-2.40;99.90;;;;;;5015266;28;20263;-84
2022/01/23 05:02:00;;;;;;;53.92;35.83;;;-2.50;99.90;;;;;;5008275;28;20026;-83
2022/01/23 05:04:32;;;;;;;58.33;39.30;;;-2.50;99.90;;;;;;5010540;28;20495;-83
2022/01/23 05:07:04;;;;;;;51.65;34.70;;;-2.50;99.90;;;;;;4998299;28;20015;-83
2022/01/23 05:09:31;;;;;;;55.10;39.58;;;-2.50;99.90;;;;;;4980286;28;20027;-83
2022/01/23 05:12:00;;;;;;;59.20;39.65;;;-2.60;99.90;;;;;;4998038;28;20018;-83
2022/01/23 05:14:36;;;;;;;52.58;39.03;;;-2.60;99.90;;;;;;4980311;28;20093;-83
2022/01/23 05:17:04;;;;;;;57.55;38.60;;;-2.60;99.90;;;;;;4980589;28;20041;-82
2022/01/23 05:19:32;;;;;;;62.47;36.97;;;-2.60;99.90;;;;;;4998275;28;20106;-82
2022/01/23 05:25:21;;;;;;;57.97;39.22;;;-2.60;99.90;;;;;;4919614;29;20043;-84
2022/01/23 05:27:51;;;;;;;50.60;35.00;;;-2.60;99.90;;;;;;4993218;28;20068;-83
2022/01/23 05:30:17;;;;;;;47.72;35.10;;;-2.60;99.90;;;;;;4980365;28;20030;-83
2022/01/23 05:32:43;;;;;;;57.22;36.42;;;-2.60;99.90;;;;;;4998037;28;20038;-83
2022/01/23 05:35:11;;;;;;;45.35;33.97;;;-2.60;99.90;;;;;;4983036;28;20394;-82
2022/01/23 05:37:37;;;;;;;58.40;35.92;;;-2.60;99.90;;;;;;4997859;28;20029;-82
2022/01/23 05:40:07;;;;;;;49.60;35.83;;;-2.70;99.90;;;;;;4980157;28;20018;-82
2022/01/23 05:42:33;;;;;;;52.33;36.55;;;-2.70;99.90;;;;;;4980375;28;20482;-82
2022/01/23 05:44:59;;;;;;;44.45;32.75;;;-2.70;99.90;;;;;;4997568;28;20462;-83
2022/01/23 05:47:25;;;;;;;53.28;35.22;;;-2.70;99.90;;;;;;4980080;28;20422;-83
2022/01/23 05:49:51;;;;;;;52.03;33.45;;;-2.70;99.90;;;;;;4997628;28;20026;-82
2022/01/23 05:52:17;;;;;;;49.22;34.00;;;-2.70;99.90;;;;;;4997671;28;20026;-82
2022/01/23 05:54:42;;;;;;;52.72;36.30;;;-2.70;99.90;;;;;;4997311;28;20038;-82
2022/01/23 05:57:11;;;;;;;50.10;36.20;;;-2.70;99.90;;;;;;4997474;28;20029;-83
2022/01/23 05:59:37;;;;;;;57.38;37.72;;;-2.60;99.90;;;;;;4997526;28;20080;-82
2022/01/23 06:02:03;;;;;;;55.40;38.05;;;-2.60;99.90;;;;;;4980061;28;20054;-83
2022/01/23 06:04:29;;;;;;;60.03;40.00;;;-2.70;99.90;;;;;;4997469;28;20398;-82
2022/01/23 06:06:57;;;;;;;59.83;39.30;;;-2.70;99.90;;;;;;4980087;28;20027;-82
2022/01/23 06:09:24;;;;;;;53.00;36.33;;;-2.60;99.90;;;;;;4997297;28;20046;-82
2022/01/23 06:11:51;;;;;;;58.80;36.92;;;-2.70;99.90;;;;;;4979930;28;20034;-82
2022/01/23 06:14:18;;;;;;;62.67;38.53;;;-2.70;99.90;;;;;;4997840;28;20018;-81
2022/01/23 06:16:44;;;;;;;52.47;38.17;;;-2.70;99.90;;;;;;5001238;28;20034;-82
2022/01/23 06:19:10;;;;;;;57.65;39.25;;;-2.80;99.90;;;;;;5001083;28;20046;-82
2022/01/23 06:21:36;;;;;;;50.95;36.08;;;-2.80;99.90;;;;;;4989791;28;20033;-82
2022/01/23 06:24:06;;;;;;;58.60;38.00;;;-2.80;99.90;;;;;;5001339;28;20023;-82
2022/01/23 06:26:56;;;;;;;53.95;35.60;;;-2.80;99.90;;;;;;5000922;28;20033;-81
2022/01/23 06:29:24;;;;;;;51.13;36.83;;;-2.90;99.90;;;;;;5001661;28;20029;-82
2022/01/23 06:31:53;;;;;;;52.67;37.05;;;-2.90;99.90;;;;;;4983674;28;20478;-81
2022/01/23 06:34:19;;;;;;;55.88;36.08;;;-2.90;99.90;;;;;;4983887;28;20033;-82
2022/01/23 06:36:48;;;;;;;52.72;33.75;;;-2.90;99.90;;;;;;4986583;28;20065;-81
2022/01/23 06:39:14;;;;;;;54.83;36.72;;;-3.00;99.90;;;;;;5000815;28;20098;-82
2022/01/23 06:41:41;;;;;;;56.42;36.92;;;-3.00;99.90;;;;;;5000914;28;20065;-82
2022/01/23 06:44:07;;;;;;;57.38;35.78;;;-3.00;99.90;;;;;;4983644;28;20033;-82
2022/01/23 06:46:33;;;;;;;54.03;35.35;;;-3.00;99.90;;;;;;4983208;28;20104;-82
2022/01/23 06:49:00;;;;;;;54.22;34.25;;;-3.10;99.90;;;;;;5000892;28;20076;-81
2022/01/23 06:51:26;;;;;;;47.40;33.17;;;-3.10;99.90;;;;;;5000490;28;20038;-82
2022/01/23 06:53:52;;;;;;;48.80;31.35;;;-3.10;99.90;;;;;;5000579;28;20391;-82
2022/01/23 06:56:19;;;;;;;52.92;33.03;;;-3.20;99.90;;;;;;5000071;28;20052;-82
2022/01/23 06:58:45;;;;;;;46.35;33.10;;;-3.20;99.90;;;;;;4983001;28;20030;-82
2022/01/23 07:01:11;;;;;;;47.35;31.90;;;-3.20;99.90;;;;;;5000353;28;20030;-82
2022/01/23 07:03:37;;;;;;;44.00;30.52;;;-3.30;99.90;;;;;;5000291;28;20023;-81
2022/01/23 07:06:04;;;;;;;48.75;32.28;;;-3.30;99.90;;;;;;5000148;28;20513;-82
2022/01/23 07:08:31;;;;;;;43.50;30.95;;;-3.30;99.90;;;;;;5000515;28;20026;-82
2022/01/23 07:10:57;;;;;;;48.50;33.08;;;-3.40;99.90;;;;;;4999910;28;20023;-82
2022/01/23 07:13:24;;;;;;;51.25;32.50;;;-3.40;99.90;;;;;;4999639;28;20028;-81
2022/01/23 07:15:51;;;;;;;45.63;32.95;;;-3.40;99.90;;;;;;5000140;28;20034;-82
2022/01/23 07:18:18;;;;;;;48.08;31.23;;;-3.40;99.90;;;;;;5000023;28;20025;-81
2022/01/23 07:20:44;;;;;;;45.90;32.20;;;-3.40;99.90;;;;;;4987923;28;20030;-81
2022/01/23 07:23:11;;;;;;;57.80;32.42;;;-3.40;99.90;;;;;;5015456;28;20023;-81
2022/01/23 07:25:38;;;;;;;48.00;30.77;;;-3.40;99.90;;;;;;4981949;28;20100;-81
2022/01/23 07:28:06;;;;;;;46.90;29.73;;;-3.40;99.90;;;;;;4998861;28;20477;-81
2022/01/23 07:30:45;;;;;;;49.67;31.15;;;-3.40;99.90;;;;;;4982019;28;20030;-81
2022/01/23 07:33:11;;;;;;;40.55;31.67;;;-3.50;99.90;;;;;;4982762;28;20486;-79
2022/01/23 07:35:37;;;;;;;43.08;32.42;;;-3.50;99.90;;;;;;5017391;28;20038;-80
2022/01/23 07:38:03;;;;;;;45.72;33.67;;;-3.50;99.90;;;;;;4982317;28;20034;-80
2022/01/23 07:40:29;;;;;;;55.90;33.97;;;-3.40;99.90;;;;;;4999806;28;20026;-80
2022/01/23 07:42:55;;;;;;;50.10;33.15;;;-3.40;99.90;;;;;;4981950;28;20030;-80
2022/01/23 07:45:21;;;;;;;46.90;33.53;;;-3.30;99.90;;;;;;5014929;28;20157;-80
2022/01/23 07:47:47;;;;;;;50.85;33.83;;;-3.30;99.90;;;;;;4999525;28;20058;-79
2022/01/23 07:50:13;;;;;;;54.25;33.95;;;-3.20;99.90;;;;;;5014347;28;20483;-80
2022/01/23 07:52:40;;;;;;;55.58;35.65;;;-3.20;99.90;;;;;;4999717;28;20053;-80
2022/01/23 07:55:12;;;;;;;50.03;34.60;;;-3.10;99.90;;;;;;4999323;28;20479;-80
2022/01/23 07:57:42;;;;;;;54.95;34.95;;;-3.00;99.90;;;;;;4999274;28;20026;-80
2022/01/23 08:00:09;;;;;;;;;;;-3.00;99.90;;;;;;4982233;28;20096;-80
2022/01/23 08:02:35;;;;;;;51.30;34.92;;;-3.00;99.90;;;;;;4981830;28;19906;-79
2022/01/23 08:05:01;;;;;;;52.65;32.33;;;-2.90;99.90;;;;;;4982179;28;20041;-80
2022/01/23 08:09:56;;;;;;;52.08;32.90;;;-2.80;99.90;;;;;;4999491;28;20026;-79
2022/01/23 08:12:23;;;;;;;44.97;33.28;;;-2.80;99.90;;;;;;4981804;28;20061;-80
2022/01/23 08:14:49;;;;;;;47.85;33.67;;;-2.70;99.90;;;;;;4981669;28;20037;-80
2022/01/23 08:17:15;;;;;;;45.75;33.90;;;-2.70;99.90;;;;;;4999068;28;20061;-80
2022/01/23 08:19:41;;;;;;;46.03;33.25;;;-2.60;99.90;;;;;;4998974;28;20434;-80
2022/01/23 08:22:07;;;;;;;53.53;35.45;;;-2.60;99.90;;;;;;4998841;28;20105;-80
2022/01/23 08:24:33;;;;;;;50.85;36.70;;;-2.50;99.90;;;;;;4998763;28;20033;-79
2022/01/23 08:26:59;;;;;;;56.58;38.13;;;-2.40;99.90;;;;;;4976747;28;20042;-80
2022/01/23 08:29:25;;;;;;;61.92;41.42;;;-2.40;99.90;;;;;;4961946;28;20035;-80
2022/01/23 08:31:51;;;;;;;172.68;83.25;;;-2.30;99.90;;;;;;4965419;28;20111;-80
2022/01/23 08:34:17;;;;;;;98.63;55.40;;;-2.20;99.90;;;;;;4972990;28;20154;-78
2022/01/23 08:36:43;;;;;;;215.57;89.95;;;-2.20;99.90;;;;;;4964781;28;20515;-78
2022/01/23 08:39:09;;;;;;;298.55;115.38;;;-2.10;99.90;;;;;;4978046;28;20023;-80
2022/01/23 08:41:50;;;;;;;243.85;130.70;;;-2.00;99.90;;;;;;4961730;28;20059;-80
2022/01/23 08:44:17;;;;;;;141.50;85.35;;;-1.90;99.90;;;;;;4961823;28;20019;-78
2022/01/23 08:46:43;;;;;;;90.28;59.30;;;-1.90;99.90;;;;;;4961700;28;20061;-78
2022/01/23 08:49:09;;;;;;;71.13;46.45;;;-1.80;99.90;;;;;;4979073;28;20391;-78
2022/01/23 08:51:36;;;;;;;63.97;42.88;;;-1.70;99.90;;;;;;4993798;28;20026;-78
2022/01/23 08:57:54;;;;;;;291.25;143.50;;;-1.60;99.90;;;;;;4959870;28;20045;-80
2022/01/23 09:00:46;;;;;;;101.95;59.92;;;-1.50;99.90;;;;;;5005949;28;20034;-81
2022/01/23 09:07:28;;;;;;;;;;;;;;;;;;;;;
2022/01/23 09:37:41;;;;;;;72.88;46.35;;;-0.40;99.90;;;;;;4930336;28;20044;-83
2022/01/23 09:43:11;;;;;;;66.20;43.70;;;-0.10;99.90;;;;;;4960509;28;20037;-81
2022/01/23 09:46:05;;;;;;;;;;;0.00;99.90;;;;;;4980841;28;20300;-82
2022/01/23 09:48:54;;;;;;;;;;;;;;;;;;;;;
2022/01/23 09:56:03;;;;;;;;;;;;;;;;;;;;;
2022/01/23 10:10:02;;;;;;;;;;;;;;;;;;;;;
2022/01/23 10:13:23;;;;;;;53.83;39.88;;;1.00;99.90;;;;;;4863790;29;20041;-81
2022/01/23 10:19:34;;;;;;;58.78;42.40;;;1.30;99.90;;;;;;4846319;29;20044;-82
2022/01/23 10:22:05;;;;;;;65.03;41.72;;;1.50;99.90;;;;;;4869096;29;20033;-82
2022/01/23 10:24:31;;;;;;;56.60;39.55;;;1.60;99.90;;;;;;4923922;28;20034;-82
2022/01/23 10:27:04;;;;;;;57.47;41.88;;;1.70;99.90;;;;;;4983213;28;20022;-82
2022/01/23 10:29:37;;;;;;;57.63;41.10;;;1.80;99.90;;;;;;5028249;28;20060;-83
2022/01/23 10:32:34;;;;;;;60.72;42.05;;;1.90;99.90;;;;;;4992849;28;20037;-82
2022/01/23 10:35:08;;;;;;;56.15;39.83;;;1.90;99.90;;;;;;5018006;28;20056;-83
2022/01/23 10:37:41;;;;;;;55.75;40.78;;;2.00;99.90;;;;;;4991953;28;20026;-82
2022/01/23 10:40:11;;;;;;;55.53;38.20;;;2.10;99.90;;;;;;4993192;28;20126;-82
2022/01/23 10:48:11;;;;;;;54.30;39.17;;;2.30;99.90;;;;;;5011724;28;20402;-82
2022/01/23 10:50:37;;;;;;;59.95;41.33;;;2.30;99.90;;;;;;5014013;28;20063;-82
2022/01/23 10:53:12;;;;;;;53.55;36.95;;;2.40;99.90;;;;;;5005044;28;20041;-81
2022/01/23 10:55:42;;;;;;;49.22;34.50;;;2.50;99.90;;;;;;5015818;28;20030;-81
2022/01/23 10:58:19;;;;;;;45.33;33.42;;;2.60;99.90;;;;;;5003052;28;20026;-82
2022/01/23 11:00:45;;;;;;;49.97;32.88;;;2.70;99.90;;;;;;5015206;28;20487;-78
2022/01/23 11:03:19;;;;;;;49.47;34.28;;;2.80;99.90;;;;;;5011802;28;20022;-78
2022/01/23 11:05:48;;;;;;;50.20;30.52;;;2.80;99.90;;;;;;5018922;28;20080;-78
2022/01/23 11:08:30;;;;;;;41.00;27.23;;;2.80;99.90;;;;;;5017450;28;20404;-79
2022/01/23 11:11:01;;;;;;;45.13;30.83;;;2.90;99.90;;;;;;5015447;28;20021;-78
2022/01/23 11:19:18;;;;;;;35.90;22.65;;;3.10;99.90;;;;;;5010005;28;20029;-77
2022/01/23 11:21:45;;;;;;;29.17;22.90;;;3.10;99.90;;;;;;5008377;28;20018;-77
2022/01/23 11:24:12;;;;;;;28.95;21.73;;;3.10;99.90;;;;;;4998766;28;20030;-77
2022/01/23 11:26:39;;;;;;;35.50;25.63;;;3.20;99.90;;;;;;4999668;28;20022;-77
2022/01/23 11:29:13;;;;;;;39.58;21.98;;;3.30;99.90;;;;;;4981948;28;20042;-77
2022/01/23 11:31:40;;;;;;;34.25;24.45;;;3.40;99.90;;;;;;4988534;28;20490;-78
2022/01/23 11:34:07;;;;;;;27.80;21.67;;;3.50;99.90;;;;;;4994515;28;20061;-78
2022/01/23 11:36:34;;;;;;;32.60;21.40;;;3.50;99.90;;;;;;4984807;28;20121;-78
2022/01/23 11:39:08;;;;;;;36.05;21.55;;;3.60;99.90;;;;;;4982135;28;20022;-79
2022/01/23 11:53:46;;;;;;;17.70;11.05;;;4.00;99.90;;;;;;4999327;28;20114;-79
2022/01/23 11:56:33;;;;;;;18.42;11.93;;;4.00;99.90;;;;;;4997656;28;20129;-79
2022/01/23 11:59:15;;;;;;;19.45;14.13;;;4.00;99.90;;;;;;4999339;28;20026;-78
2022/01/23 12:01:44;;;;;;;18.17;14.88;;;4.10;99.90;;;;;;4999312;28;20022;-78
2022/01/23 12:04:18;;;;;;;21.25;15.30;;;4.10;99.90;;;;;;4982187;28;20027;-79
2022/01/23 12:07:15;;;;;;;19.35;15.02;;;4.20;99.90;;;;;;4982556;28;20061;-78
2022/01/23 12:09:43;;;;;;;27.98;16.35;;;4.30;99.90;;;;;;4998693;28;20505;-79
2022/01/23 12:12:39;;;;;;;20.52;15.65;;;4.30;99.90;;;;;;4999000;28;20026;-79
2022/01/23 12:18:14;;;;;;;19.10;16.58;;;4.40;99.90;;;;;;4999144;28;20396;-79
2022/01/23 12:20:44;;;;;;;21.25;16.77;;;4.40;99.90;;;;;;5004896;28;20050;-78
2022/01/23 12:23:10;;;;;;;20.13;16.25;;;4.50;99.90;;;;;;4999005;28;20022;-78
2022/01/23 12:25:45;;;;;;;24.85;16.77;;;4.60;99.90;;;;;;4999368;28;20422;-79
2022/01/23 12:28:28;;;;;;;21.40;16.85;;;4.60;99.90;;;;;;5017450;28;20525;-80
2022/01/23 12:31:07;;;;;;;19.60;15.60;;;4.60;99.90;;;;;;5016596;28;20441;-79
2022/01/23 12:33:40;;;;;;;23.42;17.17;;;4.70;99.90;;;;;;5014536;28;20049;-79
2022/01/23 12:36:23;;;;;;;20.00;15.32;;;4.70;99.90;;;;;;5012843;28;20027;-80
2022/01/23 12:38:57;;;;;;;26.27;16.20;;;4.70;99.90;;;;;;5014441;28;20018;-80
2022/01/23 12:41:33;;;;;;;28.42;17.40;;;5.00;99.90;;;;;;4999023;28;20018;-79
2022/01/23 12:44:09;;;;;;;19.25;14.93;;;5.00;99.90;;;;;;5011225;28;20038;-79
2022/01/23 12:46:36;;;;;;;22.15;16.65;;;5.00;99.90;;;;;;5011316;28;20120;-79
2022/01/23 12:49:29;;;;;;;23.55;16.17;;;5.10;99.90;;;;;;5017589;28;20104;-79
2022/01/23 12:52:08;;;;;;;21.33;15.30;;;5.10;99.90;;;;;;5015900;28;20398;-79
2022/01/23 12:54:46;;;;;;;24.88;18.13;;;5.10;99.90;;;;;;5015542;28;20532;-79
2022/01/23 12:57:16;;;;;;;24.50;15.93;;;5.20;99.90;;;;;;5017126;28;20044;-80
2022/01/23 12:59:49;;;;;;;20.73;15.35;;;5.20;99.90;;;;;;4995470;28;20097;-79
2022/01/23 13:02:18;;;;;;;27.00;19.40;;;5.20;99.90;;;;;;4992174;28;20014;-79
2022/01/23 13:04:49;;;;;;;22.48;17.35;;;5.30;99.90;;;;;;4996077;28;20113;-80
2022/01/23 13:07:24;;;;;;;;;;;5.30;99.90;;;;;;5015533;28;20010;-80
2022/01/23 13:10:06;;;;;;;21.65;17.13;;;5.40;99.90;;;;;;5013089;28;19906;-81
2022/01/23 13:17:54;;;;;;;22.20;15.82;;;5.50;99.90;;;;;;4997853;28;20029;-80
2022/01/23 13:31:57;;;;;;;20.50;15.48;;;5.60;99.90;;;;;;5013744;28;20065;-80
2022/01/23 13:34:32;;;;;;;24.42;15.80;;;5.60;99.90;;;;;;5009129;28;20022;-80
2022/01/23 13:37:09;;;;;;;19.52;15.65;;;5.70;99.90;;;;;;5014562;28;20026;-81
2022/01/23 13:39:45;;;;;;;24.67;16.42;;;5.70;99.90;;;;;;4998076;28;20033;-80
2022/01/23 13:42:49;;;;;;;24.00;16.05;;;5.70;99.90;;;;;;5013410;28;20018;-80
2022/01/23 13:53:36;;;;;;;24.85;15.10;;;5.80;99.90;;;;;;5014240;28;20022;-80
2022/01/23 13:59:26;;;;;;;15.45;12.40;;;5.90;99.90;;;;;;4996665;28;20040;-79
2022/01/23 14:04:53;;;;;;;732.60;292.48;;;6.00;99.90;;;;;;4993597;28;20014;-80
2022/01/23 14:07:25;;;;;;;111.90;46.13;;;6.00;99.90;;;;;;4979611;28;20026;-80
2022/01/23 14:09:54;;;;;;;383.30;138.40;;;6.00;99.90;;;;;;5003249;28;20026;-80
2022/01/23 14:12:21;;;;;;;31.02;16.23;;;6.00;99.90;;;;;;4979376;28;20029;-79
2022/01/23 14:15:03;;;;;;;23.10;12.90;;;6.00;99.90;;;;;;4989911;28;20023;-79
2022/01/23 14:17:31;;;;;;;17.48;12.50;;;6.00;99.90;;;;;;4993654;28;20027;-80
2022/01/23 14:20:17;;;;;;;18.58;12.32;;;6.10;99.90;;;;;;4999989;28;20029;-80
2022/01/23 14:22:48;;;;;;;15.18;10.65;;;6.10;99.90;;;;;;5009818;28;20046;-81
2022/01/23 14:25:20;;;;;;;16.23;12.60;;;6.30;99.90;;;;;;4979457;28;20451;-81
2022/01/23 14:28:07;;;;;;;15.50;12.10;;;6.30;99.90;;;;;;4979692;28;20050;-81
2022/01/23 14:30:40;;;;;;;15.88;10.55;;;6.30;99.90;;;;;;4979635;28;20035;-80
2022/01/23 14:33:24;;;;;;;16.92;12.20;;;6.30;99.90;;;;;;4977644;28;20031;-80
2022/01/23 14:35:52;;;;;;;16.95;10.90;;;6.30;99.90;;;;;;4981663;28;20034;-80
2022/01/23 14:38:23;;;;;;;19.15;10.60;;;6.20;99.90;;;;;;4980919;28;20027;-80
2022/01/23 14:41:07;;;;;;;14.90;10.68;;;6.20;99.90;;;;;;4989627;28;20022;-80
2022/01/23 14:43:41;;;;;;;13.63;9.80;;;6.20;99.90;;;;;;5000244;28;20033;-81
2022/01/23 14:46:09;;;;;;;17.00;9.63;;;6.10;99.90;;;;;;4982838;28;20054;-80
2022/01/23 14:48:44;;;;;;;12.48;10.02;;;6.00;99.90;;;;;;4983041;28;20054;-82
2022/01/23 14:51:15;;;;;;;15.75;11.82;;;6.00;99.90;;;;;;5000306;28;20026;-81
2022/01/23 14:53:41;;;;;;;11.80;9.98;;;5.80;99.90;;;;;;5000352;28;20490;-81
2022/01/23 14:56:10;;;;;;;23.75;15.27;;;5.70;99.90;;;;;;4992087;28;20675;-80
2022/01/23 14:58:37;;;;;;;17.58;13.65;;;5.70;99.90;;;;;;4974808;28;20022;-80
2022/01/23 15:01:07;;;;;;;16.15;11.18;;;5.70;99.90;;;;;;4996662;28;20017;-81
2022/01/23 15:03:33;;;;;;;34.03;16.85;;;5.70;99.90;;;;;;4981326;28;20109;-81
2022/01/23 15:06:00;;;;;;;23.33;15.68;;;5.70;99.90;;;;;;4997171;28;20411;-80
2022/01/23 15:08:27;;;;;;;42.78;22.00;;;5.70;99.90;;;;;;4998871;28;20031;-81
2022/01/23 15:10:55;;;;;;;16.13;11.52;;;5.70;99.90;;;;;;4978891;28;20035;-80
2022/01/23 15:13:26;;;;;;;12.13;10.82;;;5.60;99.90;;;;;;4973746;28;20031;-81
2022/01/23 15:15:53;;;;;;;16.08;10.20;;;5.60;99.90;;;;;;4964325;28;20049;-80
2022/01/23 15:18:20;;;;;;;12.13;9.77;;;5.60;99.90;;;;;;4980974;28;20462;-81
2022/01/23 15:20:46;;;;;;;15.77;11.13;;;5.50;99.90;;;;;;4971161;28;20069;-81
2022/01/23 15:23:14;;;;;;;29.85;17.08;;;5.40;99.90;;;;;;4962871;28;20061;-81
2022/01/23 15:25:41;;;;;;;14.27;10.02;;;5.50;99.90;;;;;;4962195;28;20058;-81
2022/01/23 15:28:07;;;;;;;18.05;12.43;;;5.40;99.90;;;;;;5005699;28;20064;-81
2022/01/23 15:30:36;;;;;;;14.55;10.05;;;5.30;99.90;;;;;;4996705;28;20061;-81
2022/01/23 15:33:03;;;;;;;16.25;11.15;;;5.20;99.90;;;;;;5019131;28;20367;-81
2022/01/23 15:35:29;;;;;;;16.00;10.38;;;5.20;99.90;;;;;;4986044;28;20372;-81
2022/01/23 15:37:55;;;;;;;39.47;20.02;;;5.20;99.90;;;;;;4999957;28;20499;-81
2022/01/23 15:40:23;;;;;;;14.25;10.57;;;5.30;99.90;;;;;;4999759;28;20019;-81
2022/01/23 15:42:51;;;;;;;17.05;12.52;;;5.30;99.90;;;;;;4982360;28;20034;-81
2022/01/23 15:45:18;;;;;;;17.30;10.90;;;5.20;99.90;;;;;;4988042;28;20025;-81
2022/01/23 15:47:45;;;;;;;19.08;12.90;;;5.10;99.90;;;;;;5001571;28;20053;-81
2022/01/23 15:50:13;;;;;;;19.33;9.60;;;5.10;99.90;;;;;;5019040;28;20026;-81
2022/01/23 15:52:39;;;;;;;15.85;9.20;;;5.10;99.90;;;;;;5007693;28;20030;-81
2022/01/23 15:55:10;;;;;;;18.55;11.85;;;5.00;99.90;;;;;;4982250;28;20037;-81
2022/01/23 15:57:37;;;;;;;11.40;9.05;;;5.00;99.90;;;;;;5005853;28;20429;-81
2022/01/23 16:00:06;;;;;;;13.10;8.45;;;5.00;99.90;;;;;;4982548;28;20027;-81
2022/01/23 16:02:34;;;;;;;10.32;8.68;;;5.00;99.90;;;;;;4982214;28;20026;-81
2022/01/23 16:05:01;;;;;;;15.85;10.85;;;5.00;99.90;;;;;;4988594;28;20154;-81
2022/01/23 16:07:27;;;;;;;13.65;10.02;;;4.90;99.90;;;;;;4984708;28;20034;-80
2022/01/23 16:09:53;;;;;;;9.95;8.35;;;5.00;99.90;;;;;;4982125;28;20049;-81
2022/01/23 16:12:19;;;;;;;12.00;8.95;;;4.90;99.90;;;;;;4998656;28;20033;-81
2022/01/23 16:14:45;;;;;;;11.40;8.57;;;4.90;99.90;;;;;;4998599;28;20025;-81
2022/01/23 16:17:11;;;;;;;9.95;8.32;;;4.90;99.90;;;;;;4998625;28;20410;-81
2022/01/23 16:19:37;;;;;;;12.80;9.73;;;4.80;99.90;;;;;;4998467;28;20026;-81
2022/01/23 16:22:05;;;;;;;17.30;11.57;;;4.80;99.90;;;;;;5003623;28;20475;-80
2022/01/23 16:24:35;;;;;;;13.77;9.63;;;4.70;99.90;;;;;;4998563;28;20490;-80
2022/01/23 16:27:01;;;;;;;15.25;10.13;;;4.70;99.90;;;;;;4998408;28;20045;-81
2022/01/23 16:29:28;;;;;;;14.13;8.75;;;4.70;99.90;;;;;;4980872;28;20030;-80
2022/01/23 16:31:57;;;;;;;16.98;8.88;;;4.70;99.90;;;;;;4980889;28;20041;-81
2022/01/23 16:34:23;;;;;;;10.68;8.57;;;4.80;99.90;;;;;;4998497;28;20030;-81
2022/01/23 16:36:49;;;;;;;11.73;8.38;;;4.70;99.90;;;;;;5000893;28;20026;-80
2022/01/23 16:39:16;;;;;;;13.77;8.63;;;4.70;99.90;;;;;;4998178;28;20023;-80
2022/01/23 16:41:43;;;;;;;16.38;10.50;;;4.70;99.90;;;;;;4999735;28;20067;-80
2022/01/23 16:44:10;;;;;;;13.85;9.43;;;4.60;99.90;;;;;;5015273;28;20018;-81
2022/01/23 16:46:40;;;;;;;11.45;9.13;;;4.70;99.90;;;;;;5002626;28;20030;-81
2022/01/23 16:49:10;;;;;;;12.40;9.05;;;4.60;99.90;;;;;;4998674;28;20109;-80
2022/01/23 16:51:38;;;;;;;22.73;14.50;;;4.50;99.90;;;;;;4980856;28;20034;-80
2022/01/23 16:54:12;;;;;;;32.53;19.85;;;4.40;99.90;;;;;;4980445;28;20031;-80
2022/01/23 16:56:39;;;;;;;18.35;13.35;;;4.30;99.90;;;;;;4997775;28;20026;-80
2022/01/23 16:59:07;;;;;;;27.95;19.58;;;4.30;99.90;;;;;;4985698;28;20475;-81
2022/01/23 17:01:34;;;;;;;25.88;18.63;;;4.30;99.90;;;;;;5002439;28;20042;-81
2022/01/23 17:04:00;;;;;;;63.97;32.03;;;4.30;99.90;;;;;;5010247;28;20026;-81
2022/01/23 17:06:31;;;;;;;33.85;23.25;;;4.20;99.90;;;;;;5010153;28;20536;-81
2022/01/23 17:08:58;;;;;;;53.88;26.75;;;4.20;99.90;;;;;;4997403;28;20027;-82
2022/01/23 17:11:24;;;;;;;27.42;21.23;;;4.20;99.90;;;;;;5013876;28;20022;-82
2022/01/23 17:13:50;;;;;;;53.38;34.10;;;4.00;99.90;;;;;;4997472;28;20091;-81
2022/01/23 17:16:17;;;;;;;35.22;22.20;;;4.00;99.90;;;;;;5009716;28;20030;-82
2022/01/23 17:18:44;;;;;;;61.42;39.05;;;3.90;99.90;;;;;;4998305;28;20026;-81
2022/01/23 17:21:11;;;;;;;48.83;30.80;;;3.90;99.90;;;;;;4986920;28;20109;-82
2022/01/23 17:23:37;;;;;;;41.25;25.60;;;3.80;99.90;;;;;;4997323;28;20542;-79
2022/01/23 17:26:04;;;;;;;56.97;31.80;;;3.80;99.90;;;;;;4997161;28;20131;-79